createdAt,value
2018-12-21T00:00:02.942Z,5.49
2018-12-21T00:01:02.847Z,5.59
2018-12-21T00:02:02.819Z,5.52
2018-12-21T00:03:02.786Z,5.51
2018-12-21T00:04:02.751Z,5.51
2018-12-21T00:05:02.756Z,5.51
2018-12-21T00:06:02.731Z,5.54
2018-12-21T00:07:02.660Z,5.66
2018-12-21T00:08:02.626Z,5.63
2018-12-21T00:09:02.583Z,5.63
2018-12-21T00:10:02.548Z,5.78
2018-12-21T00:11:02.906Z,5.70
2018-12-21T00:12:02.491Z,5.75
2018-12-21T00:13:02.460Z,5.80
2018-12-21T00:14:02.420Z,5.80
2018-12-21T00:15:03.348Z,5.88
2018-12-21T00:16:02.395Z,5.85
2018-12-21T00:17:02.852Z,5.96
2018-12-21T00:18:02.287Z,5.91
2018-12-21T00:19:02.255Z,5.91
2018-12-21T00:20:02.260Z,5.89
2018-12-21T00:21:02.411Z,5.91
2018-12-21T00:22:02.887Z,6.00
2018-12-21T00:23:02.407Z,5.91
2018-12-21T00:24:02.848Z,5.91
2018-12-21T00:25:02.052Z,5.91
2018-12-21T00:26:02.019Z,5.84
2018-12-21T00:27:02.860Z,5.88
2018-12-21T00:28:02.011Z,5.78
2018-12-21T00:29:01.923Z,5.75
2018-12-21T00:30:02.852Z,5.82
2018-12-21T00:31:01.864Z,5.81
2018-12-21T00:32:01.829Z,5.81
2018-12-21T00:33:01.896Z,5.77
2018-12-21T00:34:01.753Z,5.78
2018-12-21T00:35:01.777Z,5.81
2018-12-21T00:36:01.736Z,5.80
2018-12-21T00:37:01.654Z,5.80
2018-12-21T00:38:01.680Z,5.77
2018-12-21T00:39:01.588Z,5.87
2018-12-21T00:40:02.348Z,5.80
2018-12-21T00:41:01.521Z,5.84
2018-12-21T00:42:01.489Z,5.91
2018-12-21T00:43:01.501Z,5.91
2018-12-21T00:44:01.469Z,5.89
2018-12-21T00:45:01.400Z,6.05
2018-12-21T00:46:02.350Z,6.02
2018-12-21T00:47:01.321Z,6.00
2018-12-21T00:48:01.311Z,6.10
2018-12-21T00:49:01.297Z,6.15
2018-12-21T00:50:01.853Z,6.24
2018-12-21T00:51:01.197Z,6.33
2018-12-21T00:52:01.854Z,6.33
2018-12-21T00:53:01.859Z,6.28
2018-12-21T00:54:01.407Z,6.33
2018-12-21T00:55:01.063Z,6.46
2018-12-21T00:56:01.850Z,6.49
2018-12-21T00:57:00.996Z,6.46
2018-12-21T00:58:00.964Z,6.36
2018-12-21T00:59:00.984Z,6.44
2018-12-21T01:00:02.809Z,6.54
2018-12-21T01:01:00.869Z,6.55
2018-12-21T01:02:01.356Z,6.57
2018-12-21T01:03:00.801Z,6.52
2018-12-21T01:04:01.413Z,6.60
2018-12-21T01:05:01.350Z,6.54
2018-12-21T01:06:01.351Z,6.68
2018-12-21T01:07:01.351Z,6.65
2018-12-21T01:08:01.357Z,6.65
2018-12-21T01:09:00.898Z,6.72
2018-12-21T01:10:00.921Z,6.64
2018-12-21T01:11:05.263Z,6.78
2018-12-21T01:12:00.511Z,6.76
2018-12-21T01:13:01.356Z,6.75
2018-12-21T01:14:00.445Z,6.85
2018-12-21T01:15:00.458Z,6.76
2018-12-21T01:16:00.380Z,6.80
2018-12-21T01:17:00.531Z,6.76
2018-12-21T01:18:00.855Z,6.76
2018-12-21T01:19:00.282Z,6.75
2018-12-21T01:20:00.417Z,6.82
2018-12-21T01:21:00.214Z,6.82
2018-12-21T01:22:00.854Z,6.82
2018-12-21T01:23:00.856Z,6.85
2018-12-21T01:24:00.857Z,6.82
2018-12-21T01:25:00.421Z,6.86
2018-12-21T01:26:00.925Z,6.80
2018-12-21T01:27:00.028Z,6.79
2018-12-21T01:27:59.992Z,6.78
2018-12-21T01:28:59.955Z,6.82
2018-12-21T01:30:00.498Z,6.86
2018-12-21T01:30:59.899Z,6.86
2018-12-21T01:31:59.869Z,6.86
2018-12-21T01:32:59.826Z,6.88
2018-12-21T01:33:59.795Z,6.86
2018-12-21T01:34:59.819Z,6.94
2018-12-21T01:35:59.783Z,6.94
2018-12-21T01:36:59.704Z,7.04
2018-12-21T01:38:00.358Z,6.94
2018-12-21T01:38:59.638Z,6.98
2018-12-21T01:39:59.607Z,6.97
2018-12-21T01:40:59.713Z,7.01
2018-12-21T01:41:59.537Z,6.97
2018-12-21T01:43:00.359Z,7.00
2018-12-21T01:43:59.482Z,7.00
2018-12-21T01:44:59.441Z,7.00
2018-12-21T01:45:59.449Z,7.09
2018-12-21T01:46:59.907Z,7.08
2018-12-21T01:47:59.861Z,7.09
2018-12-21T01:48:59.869Z,7.15
2018-12-21T01:49:59.859Z,7.01
2018-12-21T01:50:59.437Z,7.11
2018-12-21T01:51:59.424Z,7.11
2018-12-21T01:52:59.189Z,7.11
2018-12-21T01:53:59.153Z,7.11
2018-12-21T01:54:59.858Z,7.12
2018-12-21T01:55:59.086Z,7.08
2018-12-21T01:56:59.103Z,7.08
2018-12-21T01:57:59.416Z,7.05
2018-12-21T01:58:58.991Z,7.11
2018-12-21T01:59:59.860Z,7.15
2018-12-21T02:00:58.926Z,7.03
2018-12-21T02:01:58.898Z,7.05
2018-12-21T02:02:58.911Z,7.12
2018-12-21T02:03:58.837Z,7.12
2018-12-21T02:04:58.806Z,7.09
2018-12-21T02:05:58.773Z,7.08
2018-12-21T02:06:58.843Z,7.08
2018-12-21T02:07:58.743Z,7.19
2018-12-21T02:08:58.674Z,7.23
2018-12-21T02:09:58.642Z,7.18
2018-12-21T02:10:58.650Z,7.15
2018-12-21T02:11:58.578Z,7.13
2018-12-21T02:12:58.541Z,7.13
2018-12-21T02:13:59.272Z,7.21
2018-12-21T02:14:58.478Z,7.19
2018-12-21T02:15:58.448Z,7.13
2018-12-21T02:16:59.400Z,7.13
2018-12-21T02:17:59.363Z,7.18
2018-12-21T02:18:58.417Z,7.15
2018-12-21T02:19:58.321Z,7.16
2018-12-21T02:20:58.867Z,7.16
2018-12-21T02:21:58.259Z,7.15
2018-12-21T02:22:58.230Z,7.16
2018-12-21T02:23:58.420Z,7.23
2018-12-21T02:24:58.894Z,7.18
2018-12-21T02:25:58.865Z,7.22
2018-12-21T02:26:58.098Z,7.23
2018-12-21T02:27:58.153Z,7.19
2018-12-21T02:28:58.092Z,7.21
2018-12-21T02:29:58.868Z,7.22
2018-12-21T02:30:58.424Z,7.27
2018-12-21T02:31:58.862Z,7.27
2018-12-21T02:32:58.866Z,7.30
2018-12-21T02:33:58.871Z,7.33
2018-12-21T02:34:57.837Z,7.29
2018-12-21T02:35:57.858Z,7.23
2018-12-21T02:36:57.773Z,7.30
2018-12-21T02:37:57.741Z,7.34
2018-12-21T02:38:57.713Z,7.37
2018-12-21T02:39:57.755Z,7.39
2018-12-21T02:40:57.685Z,7.34
2018-12-21T02:41:57.613Z,7.44
2018-12-21T02:42:57.585Z,7.41
2018-12-21T02:43:58.366Z,7.45
2018-12-21T02:44:57.562Z,7.39
2018-12-21T02:45:57.485Z,7.41
2018-12-21T02:46:57.457Z,7.37
2018-12-21T02:47:57.434Z,7.33
2018-12-21T02:48:58.033Z,7.21
2018-12-21T02:49:57.354Z,7.23
2018-12-21T02:50:57.438Z,7.23
2018-12-21T02:52:05.356Z,7.19
2018-12-21T02:52:57.871Z,7.19
2018-12-21T02:53:57.229Z,7.18
2018-12-21T02:54:57.198Z,7.22
2018-12-21T02:55:57.423Z,7.19
2018-12-21T02:56:57.139Z,7.12
2018-12-21T02:57:57.873Z,7.08
2018-12-21T02:58:57.073Z,7.08
2018-12-21T02:59:57.874Z,7.13
2018-12-21T03:00:57.430Z,7.08
2018-12-21T03:01:57.868Z,7.08
2018-12-21T03:02:57.886Z,7.00
2018-12-21T03:03:56.913Z,6.97
2018-12-21T03:04:56.874Z,7.01
2018-12-21T03:05:56.894Z,7.05
2018-12-21T03:07:05.892Z,7.03
2018-12-21T03:08:05.460Z,7.01
2018-12-21T03:08:56.746Z,7.00
2018-12-21T03:09:56.713Z,6.97
2018-12-21T03:10:56.980Z,7.00
2018-12-21T03:11:56.694Z,6.98
2018-12-21T03:13:05.944Z,6.97
2018-12-21T03:13:56.581Z,7.00
2018-12-21T03:14:57.460Z,6.98
2018-12-21T03:15:56.522Z,6.97
2018-12-21T03:16:57.013Z,6.97
2018-12-21T03:17:56.452Z,7.03
2018-12-21T03:18:56.419Z,6.98
2018-12-21T03:19:56.393Z,6.94
2018-12-21T03:20:56.350Z,6.97
2018-12-21T03:21:56.503Z,7.05
2018-12-21T03:22:56.288Z,7.03
2018-12-21T03:23:56.325Z,7.00
2018-12-21T03:24:56.226Z,7.03
2018-12-21T03:25:56.188Z,7.09
2018-12-21T03:26:56.196Z,6.97
2018-12-21T03:27:56.125Z,7.05
2018-12-21T03:28:56.093Z,7.11
2018-12-21T03:29:56.082Z,7.04
2018-12-21T03:30:56.031Z,7.05
2018-12-21T03:31:56.045Z,7.08
2018-12-21T03:32:56.006Z,7.04
2018-12-21T03:33:55.941Z,7.09
2018-12-21T03:34:55.904Z,7.12
2018-12-21T03:35:55.872Z,7.05
2018-12-21T03:36:56.016Z,7.08
2018-12-21T03:37:55.805Z,7.09
2018-12-21T03:38:55.769Z,7.08
2018-12-21T03:39:56.455Z,7.19
2018-12-21T03:40:56.457Z,7.05
2018-12-21T03:41:55.721Z,7.16
2018-12-21T03:42:55.651Z,7.11
2018-12-21T03:43:56.460Z,7.11
2018-12-21T03:44:55.640Z,7.13
2018-12-21T03:45:56.461Z,7.04
2018-12-21T03:46:55.558Z,7.11
2018-12-21T03:47:55.524Z,7.08
2018-12-21T03:48:55.448Z,7.11
2018-12-21T03:49:55.420Z,7.09
2018-12-21T03:50:55.436Z,7.04
2018-12-21T03:51:55.358Z,7.09
2018-12-21T03:52:55.372Z,7.08
2018-12-21T03:53:55.288Z,7.09
2018-12-21T03:54:55.262Z,6.98
2018-12-21T03:55:55.957Z,7.09
2018-12-21T03:56:55.190Z,6.95
2018-12-21T03:57:55.302Z,7.03
2018-12-21T03:58:55.972Z,7.13
2018-12-21T03:59:55.101Z,7.13
2018-12-21T04:00:55.067Z,7.18
2018-12-21T04:01:55.049Z,7.18
2018-12-21T04:02:55.506Z,7.05
2018-12-21T04:03:55.957Z,7.19
2018-12-21T04:04:55.013Z,7.08
2018-12-21T04:05:54.905Z,7.09
2018-12-21T04:06:55.457Z,7.13
2018-12-21T04:07:55.469Z,7.15
2018-12-21T04:08:54.850Z,7.12
2018-12-21T04:09:54.806Z,7.01
2018-12-21T04:10:55.468Z,7.09
2018-12-21T04:11:54.716Z,7.11
2018-12-21T04:12:54.679Z,7.01
2018-12-21T04:13:54.699Z,7.05
2018-12-21T04:14:54.615Z,7.09
2018-12-21T04:15:55.467Z,7.09
2018-12-21T04:16:54.556Z,7.09
2018-12-21T04:17:54.514Z,7.04
2018-12-21T04:18:54.520Z,7.13
2018-12-21T04:19:54.451Z,7.11
2018-12-21T04:20:54.428Z,7.09
2018-12-21T04:21:54.431Z,7.08
2018-12-21T04:22:54.356Z,7.12
2018-12-21T04:23:54.325Z,7.09
2018-12-21T04:24:54.293Z,7.09
2018-12-21T04:25:54.264Z,7.11
2018-12-21T04:26:54.271Z,7.13
2018-12-21T04:27:54.194Z,7.01
2018-12-21T04:28:54.161Z,7.04
2018-12-21T04:29:54.135Z,7.09
2018-12-21T04:30:54.142Z,7.03
2018-12-21T04:31:54.069Z,7.00
2018-12-21T04:32:54.036Z,7.00
2018-12-21T04:33:54.002Z,7.03
2018-12-21T04:34:53.969Z,7.11
2018-12-21T04:35:53.980Z,6.98
2018-12-21T04:36:53.940Z,7.03
2018-12-21T04:37:53.914Z,7.04
2018-12-21T04:38:53.840Z,7.12
2018-12-21T04:39:53.822Z,7.13
2018-12-21T04:40:53.889Z,7.03
2018-12-21T04:41:53.786Z,7.13
2018-12-21T04:42:54.024Z,7.09
2018-12-21T04:43:53.680Z,7.09
2018-12-21T04:44:53.746Z,7.03
2018-12-21T04:45:53.615Z,7.12
2018-12-21T04:46:53.582Z,7.08
2018-12-21T04:47:53.597Z,7.08
2018-12-21T04:48:53.563Z,7.05
2018-12-21T04:49:54.466Z,6.97
2018-12-21T04:50:53.471Z,6.94
2018-12-21T04:51:53.965Z,7.05
2018-12-21T04:52:53.432Z,7.05
2018-12-21T04:53:53.398Z,7.00
2018-12-21T04:54:53.324Z,7.00
2018-12-21T04:55:53.293Z,6.95
2018-12-21T04:56:53.259Z,6.97
2018-12-21T04:57:53.230Z,6.95
2018-12-21T04:58:53.245Z,6.97
2018-12-21T04:59:53.162Z,7.00
2018-12-21T05:00:53.142Z,6.95
2018-12-21T05:01:53.101Z,6.98
2018-12-21T05:02:53.066Z,6.95
2018-12-21T05:03:53.080Z,7.01
2018-12-21T05:04:53.012Z,6.98
2018-12-21T05:05:53.968Z,7.01
2018-12-21T05:06:53.482Z,7.00
2018-12-21T05:07:52.915Z,7.08
2018-12-21T05:08:53.020Z,7.03
2018-12-21T05:09:52.895Z,7.00
2018-12-21T05:10:52.809Z,7.00
2018-12-21T05:11:52.781Z,7.04
2018-12-21T05:12:53.469Z,6.97
2018-12-21T05:13:52.717Z,7.00
2018-12-21T05:14:52.724Z,7.09
2018-12-21T05:15:52.695Z,7.01
2018-12-21T05:16:52.626Z,7.09
2018-12-21T05:17:52.588Z,7.11
2018-12-21T05:18:52.568Z,7.00
2018-12-21T05:19:52.567Z,7.05
2018-12-21T05:20:52.497Z,7.04
2018-12-21T05:21:52.515Z,7.04
2018-12-21T05:22:52.706Z,7.09
2018-12-21T05:23:52.394Z,7.12
2018-12-21T05:24:52.416Z,7.04
2018-12-21T05:25:52.330Z,7.03
2018-12-21T05:26:52.306Z,7.08
2018-12-21T05:27:52.263Z,7.03
2018-12-21T05:28:52.230Z,7.09
2018-12-21T05:29:52.528Z,7.00
2018-12-21T05:30:52.214Z,7.12
2018-12-21T05:31:52.159Z,7.08
2018-12-21T05:32:52.107Z,7.01
2018-12-21T05:33:52.075Z,7.11
2018-12-21T05:34:52.040Z,7.04
2018-12-21T05:35:52.055Z,7.13
2018-12-21T05:36:51.975Z,7.12
2018-12-21T05:37:51.943Z,7.05
2018-12-21T05:38:51.910Z,7.11
2018-12-21T05:39:51.883Z,7.11
2018-12-21T05:40:51.888Z,7.08
2018-12-21T05:41:51.857Z,7.04
2018-12-21T05:42:51.791Z,7.12
2018-12-21T05:43:51.751Z,7.08
2018-12-21T05:44:52.468Z,7.05
2018-12-21T05:45:51.685Z,7.03
2018-12-21T05:46:52.029Z,7.12
2018-12-21T05:47:53.577Z,7.12
2018-12-21T05:48:51.595Z,7.05
2018-12-21T05:49:51.556Z,7.12
2018-12-21T05:50:51.525Z,7.12
2018-12-21T05:51:51.551Z,7.05
2018-12-21T05:52:51.458Z,7.04
2018-12-21T05:53:51.432Z,7.03
2018-12-21T05:54:51.405Z,7.09
2018-12-21T05:55:51.424Z,7.16
2018-12-21T05:56:51.972Z,7.09
2018-12-21T05:57:51.359Z,7.11
2018-12-21T05:58:51.308Z,7.09
2018-12-21T05:59:51.239Z,7.08
2018-12-21T06:00:51.206Z,7.18
2018-12-21T06:01:51.974Z,7.09
2018-12-21T06:02:51.144Z,7.09
2018-12-21T06:03:52.039Z,7.11
2018-12-21T06:04:51.982Z,7.09
2018-12-21T06:05:51.045Z,7.16
2018-12-21T06:06:51.010Z,7.13
2018-12-21T06:07:51.974Z,7.12
2018-12-21T06:08:51.001Z,7.15
2018-12-21T06:09:51.478Z,7.12
2018-12-21T06:10:50.886Z,7.15
2018-12-21T06:11:50.878Z,7.11
2018-12-21T06:12:50.836Z,7.08
2018-12-21T06:13:50.843Z,7.15
2018-12-21T06:14:50.754Z,7.12
2018-12-21T06:15:50.749Z,7.12
2018-12-21T06:16:50.690Z,7.16
2018-12-21T06:17:50.666Z,7.12
2018-12-21T06:18:50.684Z,7.16
2018-12-21T06:19:51.480Z,7.13
2018-12-21T06:20:50.568Z,7.12
2018-12-21T06:21:50.540Z,7.19
2018-12-21T06:22:50.499Z,7.18
2018-12-21T06:23:50.516Z,7.19
2018-12-21T06:24:50.435Z,7.21
2018-12-21T06:25:50.450Z,7.16
2018-12-21T06:26:50.376Z,7.13
2018-12-21T06:27:50.976Z,7.16
2018-12-21T06:28:50.315Z,7.21
2018-12-21T06:29:50.279Z,7.12
2018-12-21T06:30:50.288Z,7.18
2018-12-21T06:31:50.231Z,7.12
2018-12-21T06:32:50.179Z,7.09
2018-12-21T06:33:50.152Z,7.12
2018-12-21T06:34:50.116Z,7.12
2018-12-21T06:35:50.126Z,7.11
2018-12-21T06:36:50.068Z,7.12
2018-12-21T06:37:50.021Z,7.05
2018-12-21T06:38:49.987Z,7.11
2018-12-21T06:39:50.498Z,6.97
2018-12-21T06:40:49.969Z,7.05
2018-12-21T06:41:49.895Z,7.03
2018-12-21T06:42:50.808Z,6.97
2018-12-21T06:43:50.051Z,6.97
2018-12-21T06:44:49.812Z,6.97
2018-12-21T06:45:49.871Z,6.95
2018-12-21T06:46:49.774Z,6.97
2018-12-21T06:47:49.699Z,7.00
2018-12-21T06:48:49.665Z,7.01
2018-12-21T06:49:49.635Z,6.98
2018-12-21T06:50:49.604Z,6.90
2018-12-21T06:51:49.631Z,6.97
2018-12-21T06:52:49.544Z,6.95
2018-12-21T06:53:49.507Z,6.91
2018-12-21T06:54:49.473Z,6.86
2018-12-21T06:55:49.440Z,6.80
2018-12-21T06:56:49.453Z,6.83
2018-12-21T06:57:49.379Z,6.80
2018-12-21T06:58:49.348Z,6.78
2018-12-21T06:59:49.357Z,6.62
2018-12-21T07:00:49.292Z,6.80
2018-12-21T07:01:49.265Z,6.79
2018-12-21T07:02:49.253Z,6.67
2018-12-21T07:03:49.193Z,6.72
2018-12-21T07:04:49.154Z,6.68
2018-12-21T07:05:49.126Z,6.64
2018-12-21T07:06:49.088Z,6.68
2018-12-21T07:07:49.099Z,6.65
2018-12-21T07:08:49.023Z,6.65
2018-12-21T07:09:49.030Z,6.75
2018-12-21T07:10:48.967Z,6.78
2018-12-21T07:11:48.926Z,6.79
2018-12-21T07:12:48.939Z,6.73
2018-12-21T07:13:48.865Z,6.73
2018-12-21T07:14:48.842Z,6.78
2018-12-21T07:15:49.485Z,6.76
2018-12-21T07:16:48.761Z,6.76
2018-12-21T07:17:48.772Z,6.78
2018-12-21T07:18:48.701Z,6.82
2018-12-21T07:19:48.670Z,6.85
2018-12-21T07:20:48.679Z,6.82
2018-12-21T07:21:48.600Z,6.79
2018-12-21T07:22:48.571Z,6.82
2018-12-21T07:23:49.043Z,6.82
2018-12-21T07:24:48.552Z,6.83
2018-12-21T07:25:48.551Z,6.85
2018-12-21T07:26:48.441Z,6.80
2018-12-21T07:27:48.988Z,6.86
2018-12-21T07:28:48.384Z,6.88
2018-12-21T07:29:48.381Z,6.85
2018-12-21T07:30:49.049Z,6.83
2018-12-21T07:31:48.280Z,6.88
2018-12-21T07:32:48.266Z,6.83
2018-12-21T07:33:48.985Z,6.90
2018-12-21T07:34:48.951Z,6.93
2018-12-21T07:35:48.149Z,6.94
2018-12-21T07:36:48.149Z,6.88
2018-12-21T07:37:48.085Z,6.91
2018-12-21T07:38:48.055Z,6.86
2018-12-21T07:39:48.068Z,6.83
2018-12-21T07:40:47.993Z,6.85
2018-12-21T07:41:48.012Z,6.86
2018-12-21T07:42:47.922Z,6.86
2018-12-21T07:43:47.895Z,6.83
2018-12-21T07:44:47.874Z,6.83
2018-12-21T07:45:47.828Z,6.86
2018-12-21T07:46:47.847Z,6.91
2018-12-21T07:47:47.778Z,6.86
2018-12-21T07:48:47.734Z,6.83
2018-12-21T07:49:48.042Z,6.91
2018-12-21T07:50:47.670Z,6.86
2018-12-21T07:51:47.636Z,6.86
2018-12-21T07:52:47.607Z,6.83
2018-12-21T07:53:47.579Z,6.94
2018-12-21T07:54:48.097Z,6.83
2018-12-21T07:55:47.512Z,6.91
2018-12-21T07:56:47.989Z,6.88
2018-12-21T07:57:47.444Z,6.78
2018-12-21T07:58:47.417Z,6.85
2018-12-21T07:59:47.420Z,6.83
2018-12-21T08:00:47.991Z,6.82
2018-12-21T08:01:47.328Z,6.76
2018-12-21T08:02:47.285Z,6.78
2018-12-21T08:03:47.249Z,6.85
2018-12-21T08:04:47.274Z,6.79
2018-12-21T08:05:47.180Z,6.83
2018-12-21T08:07:47.158Z,6.78
2018-12-21T08:08:47.093Z,6.78
2018-12-21T08:09:47.054Z,6.76
2018-12-21T08:10:48.025Z,6.79
2018-12-21T08:11:47.036Z,6.80
2018-12-21T08:12:46.962Z,6.86
2018-12-21T08:13:47.491Z,6.76
2018-12-21T08:14:46.936Z,6.78
2018-12-21T08:15:47.045Z,6.85
2018-12-21T08:16:47.499Z,6.80
2018-12-21T08:17:47.506Z,6.80
2018-12-21T08:18:46.870Z,6.90
2018-12-21T08:19:46.753Z,6.80
2018-12-21T08:20:46.742Z,6.82
2018-12-21T08:21:46.668Z,6.79
2018-12-21T08:22:46.655Z,6.82
2018-12-21T08:23:46.618Z,6.83
2018-12-21T08:24:47.414Z,6.88
2018-12-21T08:25:47.059Z,6.90
2018-12-21T08:26:46.508Z,6.86
2018-12-21T08:27:46.479Z,6.80
2018-12-21T08:28:46.465Z,6.90
2018-12-21T08:29:46.412Z,6.79
2018-12-21T08:30:46.418Z,6.91
2018-12-21T08:31:46.424Z,6.90
2018-12-21T08:32:46.334Z,6.90
2018-12-21T08:33:47.004Z,6.85
2018-12-21T08:34:46.248Z,6.94
2018-12-21T08:35:46.213Z,6.94
2018-12-21T08:36:46.229Z,6.97
2018-12-21T08:37:46.149Z,6.93
2018-12-21T08:38:46.125Z,6.97
2018-12-21T08:39:46.146Z,6.97
2018-12-21T08:40:46.050Z,7.01
2018-12-21T08:41:46.087Z,6.91
2018-12-21T08:42:45.990Z,6.95
2018-12-21T08:43:45.962Z,6.93
2018-12-21T08:44:46.017Z,7.04
2018-12-21T08:45:46.493Z,7.01
2018-12-21T08:46:45.864Z,7.11
2018-12-21T08:47:45.831Z,7.05
2018-12-21T08:48:46.502Z,7.09
2018-12-21T08:49:45.810Z,7.09
2018-12-21T08:50:46.545Z,7.09
2018-12-21T08:51:45.700Z,7.11
2018-12-21T08:52:45.719Z,7.18
2018-12-21T08:53:52.547Z,7.13
2018-12-21T08:54:45.609Z,7.15
2018-12-21T08:55:45.571Z,7.15
2018-12-21T08:56:45.573Z,7.08
2018-12-21T08:57:46.057Z,7.08
2018-12-21T08:58:45.518Z,7.09
2018-12-21T08:59:45.442Z,7.13
2018-12-21T09:00:45.476Z,7.22
2018-12-21T09:01:45.448Z,7.23
2018-12-21T09:02:45.355Z,7.26
2018-12-21T09:03:45.317Z,7.21
2018-12-21T09:04:45.286Z,7.23
2018-12-21T09:05:45.251Z,7.23
2018-12-21T09:06:45.284Z,7.29
2018-12-21T09:07:45.198Z,7.29
2018-12-21T09:08:45.154Z,7.30
2018-12-21T09:09:45.122Z,7.29
2018-12-21T09:10:45.096Z,7.31
2018-12-21T09:11:45.105Z,7.37
2018-12-21T09:12:45.072Z,7.34
2018-12-21T09:13:44.994Z,7.36
2018-12-21T09:14:44.991Z,7.40
2018-12-21T09:15:44.932Z,7.31
2018-12-21T09:16:45.406Z,7.40
2018-12-21T09:17:44.911Z,7.31
2018-12-21T09:18:44.844Z,7.30
2018-12-21T09:19:44.836Z,7.30
2018-12-21T09:20:45.499Z,7.34
2018-12-21T09:21:44.755Z,7.37
2018-12-21T09:22:44.758Z,7.39
2018-12-21T09:23:44.707Z,7.40
2018-12-21T09:24:44.648Z,7.37
2018-12-21T09:25:44.615Z,7.36
2018-12-21T09:26:44.586Z,7.36
2018-12-21T09:27:44.600Z,7.45
2018-12-21T09:28:44.517Z,7.51
2018-12-21T09:29:44.550Z,7.45
2018-12-21T09:30:44.455Z,7.59
2018-12-21T09:31:44.444Z,7.56
2018-12-21T09:32:44.447Z,7.54
2018-12-21T09:33:44.427Z,7.67
2018-12-21T09:34:45.009Z,7.61
2018-12-21T09:35:44.296Z,7.71
2018-12-21T09:36:44.264Z,7.68
2018-12-21T09:37:44.232Z,7.63
2018-12-21T09:38:44.246Z,7.68
2018-12-21T09:39:45.003Z,7.73
2018-12-21T09:40:44.136Z,7.73
2018-12-21T09:41:44.109Z,7.77
2018-12-21T09:42:45.001Z,7.73
2018-12-21T09:43:44.554Z,7.73
2018-12-21T09:44:52.312Z,7.83
2018-12-21T09:45:44.044Z,7.73
2018-12-21T09:46:43.946Z,7.67
2018-12-21T09:47:44.411Z,7.61
2018-12-21T09:48:43.889Z,7.73
2018-12-21T09:49:43.856Z,7.80
2018-12-21T09:50:43.871Z,7.75
2018-12-21T09:51:45.368Z,7.78
2018-12-21T09:52:43.760Z,7.88
2018-12-21T09:53:43.728Z,7.91
2018-12-21T09:54:43.698Z,7.83
2018-12-21T09:55:43.722Z,7.83
2018-12-21T09:56:43.633Z,7.74
2018-12-21T09:57:43.601Z,7.86
2018-12-21T09:58:43.633Z,7.83
2018-12-21T09:59:43.540Z,7.75
2018-12-21T10:00:43.577Z,7.83
2018-12-21T10:01:43.533Z,7.88
2018-12-21T10:02:43.444Z,7.93
2018-12-21T10:03:43.415Z,7.89
2018-12-21T10:04:43.385Z,7.96
2018-12-21T10:05:43.355Z,7.93
2018-12-21T10:06:43.434Z,7.96
2018-12-21T10:07:43.289Z,7.85
2018-12-21T10:08:43.269Z,7.98
2018-12-21T10:09:43.284Z,7.96
2018-12-21T10:10:43.198Z,7.86
2018-12-21T10:11:43.211Z,7.86
2018-12-21T10:12:43.132Z,8.01
2018-12-21T10:13:43.143Z,7.98
2018-12-21T10:14:43.215Z,7.91
2018-12-21T10:15:43.041Z,8.04
2018-12-21T10:16:43.056Z,8.04
2018-12-21T10:17:42.979Z,7.99
2018-12-21T10:18:42.974Z,7.91
2018-12-21T10:19:42.920Z,7.86
2018-12-21T10:20:42.890Z,7.91
2018-12-21T10:21:42.903Z,7.85
2018-12-21T10:22:43.506Z,7.88
2018-12-21T10:23:42.789Z,7.89
2018-12-21T10:24:42.806Z,7.93
2018-12-21T10:25:42.794Z,7.91
2018-12-21T10:26:42.698Z,7.91
2018-12-21T10:27:42.680Z,7.88
2018-12-21T10:28:42.690Z,7.88
2018-12-21T10:29:48.441Z,7.91
2018-12-21T10:30:42.573Z,7.95
2018-12-21T10:31:42.547Z,7.89
2018-12-21T10:32:42.514Z,7.89
2018-12-21T10:33:42.526Z,7.99
2018-12-21T10:34:42.464Z,7.96
2018-12-21T10:35:42.454Z,7.99
2018-12-21T10:36:42.391Z,7.96
2018-12-21T10:37:42.369Z,8.04
2018-12-21T10:38:42.363Z,7.95
2018-12-21T10:39:42.297Z,7.93
2018-12-21T10:40:42.327Z,7.86
2018-12-21T10:41:42.236Z,7.93
2018-12-21T10:42:42.206Z,8.03
2018-12-21T10:43:42.166Z,7.91
2018-12-21T10:44:42.143Z,7.96
2018-12-21T10:45:42.154Z,8.03
2018-12-21T10:46:42.075Z,7.91
2018-12-21T10:47:42.051Z,8.03
2018-12-21T10:48:42.072Z,8.01
2018-12-21T10:49:41.977Z,8.07
2018-12-21T10:50:42.515Z,8.03
2018-12-21T10:51:41.971Z,8.04
2018-12-21T10:52:41.890Z,8.01
2018-12-21T10:53:41.867Z,7.98
2018-12-21T10:54:41.871Z,8.01
2018-12-21T10:55:41.795Z,8.17
2018-12-21T10:56:41.760Z,8.14
2018-12-21T10:57:42.514Z,8.14
2018-12-21T10:58:41.736Z,8.16
2018-12-21T10:59:43.497Z,8.06
2018-12-21T11:00:41.639Z,8.03
2018-12-21T11:01:42.573Z,8.11
2018-12-21T11:02:41.576Z,8.24
2018-12-21T11:03:41.544Z,8.16
2018-12-21T11:04:41.567Z,8.22
2018-12-21T11:05:42.026Z,8.29
2018-12-21T11:06:41.481Z,8.28
2018-12-21T11:07:41.435Z,8.19
2018-12-21T11:08:42.014Z,8.13
2018-12-21T11:09:41.408Z,8.24
2018-12-21T11:10:41.399Z,8.26
2018-12-21T11:11:41.298Z,8.25
2018-12-21T11:12:41.415Z,8.24
2018-12-21T11:13:41.249Z,8.28
2018-12-21T11:14:41.215Z,8.31
2018-12-21T11:15:41.225Z,8.36
2018-12-21T11:16:41.152Z,8.32
2018-12-21T11:17:41.119Z,8.34
2018-12-21T11:18:41.091Z,8.31
2018-12-21T11:19:41.074Z,8.28
2018-12-21T11:20:41.088Z,8.35
2018-12-21T11:21:40.991Z,8.34
2018-12-21T11:22:40.971Z,8.28
2018-12-21T11:23:40.927Z,8.24
2018-12-21T11:24:41.215Z,8.26
2018-12-21T11:25:40.955Z,8.24
2018-12-21T11:26:40.902Z,8.22
2018-12-21T11:27:40.812Z,8.22
2018-12-21T11:28:40.780Z,8.16
2018-12-21T11:29:40.776Z,8.04
2018-12-21T11:30:40.718Z,8.06
2018-12-21T11:31:40.766Z,8.14
2018-12-21T11:32:40.670Z,8.04
2018-12-21T11:33:40.623Z,8.07
2018-12-21T11:34:40.584Z,8.13
2018-12-21T11:35:40.559Z,8.06
2018-12-21T11:36:40.956Z,8.09
2018-12-21T11:37:40.512Z,8.09
2018-12-21T11:38:41.034Z,8.04
2018-12-21T11:39:40.438Z,8.06
2018-12-21T11:40:40.447Z,8.10
2018-12-21T11:41:41.071Z,8.06
2018-12-21T11:42:40.394Z,8.10
2018-12-21T11:43:40.305Z,8.07
2018-12-21T11:44:40.273Z,8.13
2018-12-21T11:45:40.377Z,8.21
2018-12-21T11:46:40.232Z,8.13
2018-12-21T11:47:40.262Z,8.24
2018-12-21T11:48:40.165Z,8.25
2018-12-21T11:49:40.118Z,8.28
2018-12-21T11:50:40.148Z,8.34
2018-12-21T11:51:40.056Z,8.35
2018-12-21T11:52:40.028Z,8.44
2018-12-21T11:53:39.999Z,8.42
2018-12-21T11:54:44.198Z,8.46
2018-12-21T11:55:40.566Z,8.40
2018-12-21T11:56:39.904Z,8.40
2018-12-21T11:57:39.863Z,8.47
2018-12-21T11:58:39.839Z,8.43
2018-12-21T11:59:44.891Z,8.40
2018-12-21T12:00:39.774Z,8.32
2018-12-21T12:01:39.745Z,8.29
2018-12-21T12:02:39.714Z,8.32
2018-12-21T12:03:39.679Z,8.31
2018-12-21T12:04:39.727Z,8.28
2018-12-21T12:05:39.682Z,8.32
2018-12-21T12:06:39.590Z,8.24
2018-12-21T12:07:39.559Z,8.25
2018-12-21T12:08:39.528Z,8.17
2018-12-21T12:09:39.497Z,8.24
2018-12-21T12:10:39.512Z,8.17
2018-12-21T12:11:39.513Z,8.26
2018-12-21T12:12:39.490Z,8.16
2018-12-21T12:13:39.415Z,8.14
2018-12-21T12:14:39.352Z,8.11
2018-12-21T12:15:39.309Z,8.10
2018-12-21T12:16:39.387Z,8.04
2018-12-21T12:17:39.250Z,7.95
2018-12-21T12:18:40.034Z,8.11
2018-12-21T12:19:39.228Z,8.09
2018-12-21T12:20:39.154Z,8.09
2018-12-21T12:21:39.120Z,8.07
2018-12-21T12:22:39.137Z,8.09
2018-12-21T12:23:39.056Z,8.14
2018-12-21T12:24:39.048Z,8.09
2018-12-21T12:25:39.002Z,8.01
2018-12-21T12:26:44.362Z,8.04
2018-12-21T12:27:38.979Z,8.01
2018-12-21T12:28:38.904Z,7.96
2018-12-21T12:29:38.869Z,8.06
2018-12-21T12:30:38.838Z,8.07
2018-12-21T12:31:38.819Z,8.03
2018-12-21T12:32:38.816Z,7.95
2018-12-21T12:33:38.748Z,7.98
2018-12-21T12:34:38.710Z,7.95
2018-12-21T12:35:38.724Z,7.98
2018-12-21T12:36:38.654Z,8.09
2018-12-21T12:37:38.665Z,7.98
2018-12-21T12:38:38.586Z,8.06
2018-12-21T12:39:38.709Z,7.99
2018-12-21T12:40:38.528Z,8.04
2018-12-21T12:41:38.491Z,7.96
2018-12-21T12:42:38.596Z,7.99
2018-12-21T12:43:38.433Z,7.96
2018-12-21T12:44:38.398Z,8.01
2018-12-21T12:45:38.370Z,8.04
2018-12-21T12:46:38.333Z,8.03
2018-12-21T12:47:38.344Z,8.01
2018-12-21T12:48:38.274Z,7.98
2018-12-21T12:49:38.243Z,8.06
2018-12-21T12:50:38.212Z,8.11
2018-12-21T12:51:38.192Z,7.98
2018-12-21T12:52:38.255Z,7.98
2018-12-21T12:53:39.037Z,7.98
2018-12-21T12:54:38.139Z,8.06
2018-12-21T12:55:38.053Z,7.98
2018-12-21T12:56:38.023Z,7.95
2018-12-21T12:57:37.987Z,7.96
2018-12-21T12:58:37.957Z,8.03
2018-12-21T12:59:37.973Z,8.03
2018-12-21T13:00:37.891Z,7.89
2018-12-21T13:01:37.866Z,8.01
2018-12-21T13:02:37.873Z,7.95
2018-12-21T13:03:37.851Z,7.95
2018-12-21T13:04:37.814Z,7.93
2018-12-21T13:05:37.737Z,7.91
2018-12-21T13:06:38.556Z,7.95
2018-12-21T13:07:37.674Z,7.86
2018-12-21T13:08:38.959Z,8.04
2018-12-21T13:09:38.534Z,7.83
2018-12-21T13:10:37.585Z,7.93
2018-12-21T13:11:37.545Z,7.93
2018-12-21T13:12:37.539Z,7.85
2018-12-21T13:13:37.534Z,7.85
2018-12-21T13:14:37.454Z,7.88
2018-12-21T13:15:37.422Z,7.88
2018-12-21T13:16:37.406Z,7.86
2018-12-21T13:17:37.490Z,7.88
2018-12-21T13:18:37.376Z,7.91